CYNR

METAR CYNR 311700Z AUTO 18011KT 9SM OVC017 03/00 A2965 RMK AO2 SLP057
METAR
LOCATION
CYNR
DATE - TIME
311700Z
WIND
180 TRUE @ 11 KNOTS
VISIBILITY
9SM
RUNWAY VISUAL RANGE
NOT REPORTED
WEATHER
CLOUDINESS
OVC017
TEMP / DEWPOINT
3 ºC / 0 ºC
ALTIMETER
29.65 in. Hg
RECENT WEATHER
NOT REPORTED
WIND SHEAR
NOT REPORTED
REMARKS
RMK AO2 SLP057
SEA LEVEL PRESSURE: hPa

CYNR

METAR CYNR 311600Z AUTO 17008KT 9SM OVC017 02/M00 A2967 RMK AO2 SLP062
METAR
LOCATION
CYNR
DATE - TIME
311600Z
WIND
170 TRUE @ 8 KNOTS
VISIBILITY
9SM
RUNWAY VISUAL RANGE
NOT REPORTED
WEATHER
CLOUDINESS
OVC017
TEMP / DEWPOINT
2 ºC / -0 ºC
ALTIMETER
29.67 in. Hg
RECENT WEATHER
NOT REPORTED
WIND SHEAR
NOT REPORTED
REMARKS
RMK AO2 SLP062
SEA LEVEL PRESSURE: hPa

CYNR

METAR CYNR 311500Z AUTO 17007KT 9SM OVC016 02/M00 A2969 RMK AO2 PRESFR SLP069
METAR
LOCATION
CYNR
DATE - TIME
311500Z
WIND
170 TRUE @ 7 KNOTS
VISIBILITY
9SM
RUNWAY VISUAL RANGE
NOT REPORTED
WEATHER
CLOUDINESS
OVC016
TEMP / DEWPOINT
2 ºC / -0 ºC
ALTIMETER
29.69 in. Hg
RECENT WEATHER
NOT REPORTED
WIND SHEAR
NOT REPORTED
REMARKS
RMK AO2 PRESFR SLP069
SEA LEVEL PRESSURE: hPa

Your time UTC time
 
 
Weather data provided by AXYS Technologies Inc., www.axystechnologies.com
 
Station History